createdAt,value
2023-04-10T00:00:32.774Z,41.53
2023-04-10T00:03:03.346Z,39.47
2023-04-10T00:05:30.673Z,42.17
2023-04-10T00:07:57.223Z,39.03
2023-04-10T00:10:26.209Z,38.50
2023-04-10T00:12:53.824Z,35.37
2023-04-10T00:15:20.640Z,42.57
2023-04-10T00:17:47.255Z,43.70
2023-04-10T00:20:13.836Z,40.17
2023-04-10T00:22:41.804Z,42.00
2023-04-10T00:25:08.693Z,38.33
2023-04-10T00:27:35.333Z,48.90
2023-04-10T00:30:02.588Z,43.80
2023-04-10T00:32:29.259Z,51.43
2023-04-10T00:34:55.882Z,45.20
2023-04-10T00:37:22.604Z,41.60
2023-04-10T00:39:49.159Z,44.20
2023-04-10T00:42:15.696Z,41.70
2023-04-10T00:44:42.335Z,39.23
2023-04-10T00:47:08.904Z,38.90
2023-04-10T00:49:35.845Z,43.73
2023-04-10T00:52:02.478Z,41.30
2023-04-10T00:54:30.333Z,41.17
2023-04-10T00:56:58.446Z,39.20
2023-04-10T00:59:25.264Z,45.17
2023-04-10T01:01:51.954Z,42.47
2023-04-10T01:04:18.898Z,40.37
2023-04-10T01:06:52.904Z,41.40
2023-04-10T01:09:44.399Z,39.40
2023-04-10T01:12:38.160Z,37.83
2023-04-10T01:15:04.725Z,43.07
2023-04-10T01:17:52.370Z,39.47
2023-04-10T01:20:27.486Z,39.50
2023-04-10T01:23:25.365Z,39.53
2023-04-10T01:26:05.521Z,39.33
2023-04-10T01:29:04.131Z,41.30
2023-04-10T01:31:42.443Z,47.80
2023-04-10T01:34:15.500Z,41.30
2023-04-10T01:37:00.487Z,40.27
2023-04-10T01:39:28.466Z,42.83
2023-04-10T01:41:57.804Z,43.77
2023-04-10T01:44:27.763Z,47.40
2023-04-10T01:46:56.268Z,45.20
2023-04-10T01:49:26.174Z,42.10
2023-04-10T01:51:55.545Z,43.70
2023-04-10T01:54:22.596Z,45.93
2023-04-10T01:56:49.192Z,47.20
2023-04-10T01:59:16.104Z,45.40
2023-04-10T02:01:42.711Z,44.90
2023-04-10T02:04:09.469Z,48.07
2023-04-10T02:07:03.614Z,48.97
2023-04-10T02:09:55.862Z,54.13
2023-04-10T02:12:27.398Z,47.37
2023-04-10T02:14:56.101Z,57.17
2023-04-10T02:17:28.724Z,48.80
2023-04-10T02:19:57.065Z,49.53
2023-04-10T02:22:25.645Z,51.73
2023-04-10T02:24:55.487Z,54.27
2023-04-10T02:27:36.316Z,53.43
2023-04-10T02:30:04.296Z,55.77
2023-04-10T02:32:33.295Z,51.03
2023-04-10T02:35:00.186Z,48.87
2023-04-10T02:37:26.785Z,58.70
2023-04-10T02:39:54.848Z,55.60
2023-04-10T02:42:21.480Z,56.47
2023-04-10T02:44:48.403Z,49.57
2023-04-10T02:47:16.104Z,53.97
2023-04-10T02:49:42.673Z,51.73
2023-04-10T02:52:09.345Z,50.70
2023-04-10T02:54:36.053Z,49.47
2023-04-10T02:57:02.907Z,54.87
2023-04-10T02:59:29.549Z,52.37
2023-04-10T03:01:56.298Z,52.63
2023-04-10T03:04:22.988Z,52.17
2023-04-10T03:06:49.654Z,53.50
2023-04-10T03:09:16.908Z,53.80
2023-04-10T03:11:43.522Z,49.23
2023-04-10T03:14:10.138Z,46.87
2023-04-10T03:16:36.950Z,48.13
2023-04-10T03:19:03.836Z,48.50
2023-04-10T03:21:30.475Z,47.50
2023-04-10T03:23:57.017Z,52.13
2023-04-10T03:26:23.961Z,51.83
2023-04-10T03:28:50.900Z,46.50
2023-04-10T03:31:17.665Z,47.73
2023-04-10T03:33:44.405Z,48.30
2023-04-10T03:36:11.416Z,50.53
2023-04-10T03:38:38.119Z,50.57
2023-04-10T03:41:04.997Z,50.33
2023-04-10T03:43:31.666Z,51.50
2023-04-10T03:45:58.584Z,55.73
2023-04-10T03:48:28.275Z,48.10
2023-04-10T03:50:55.403Z,55.90
2023-04-10T03:53:22.112Z,52.40
2023-04-10T03:55:48.661Z,51.00
2023-04-10T03:58:15.284Z,52.87
2023-04-10T04:00:42.121Z,56.43
2023-04-10T04:03:08.912Z,52.70
2023-04-10T04:05:35.718Z,46.03
2023-04-10T04:08:04.672Z,48.97
2023-04-10T04:10:31.311Z,51.33
2023-04-10T04:12:58.005Z,44.23
2023-04-10T04:15:24.787Z,47.53
2023-04-10T04:17:51.806Z,51.87
2023-04-10T04:20:18.440Z,47.00
2023-04-10T04:22:46.185Z,53.17
2023-04-10T04:25:12.852Z,42.30
2023-04-10T04:27:39.463Z,44.27
2023-04-10T04:30:06.897Z,48.37
2023-04-10T04:32:33.501Z,45.90
2023-04-10T04:35:00.090Z,49.03
2023-04-10T04:37:26.730Z,46.30
2023-04-10T04:39:53.275Z,46.20
2023-04-10T04:42:19.873Z,46.67
2023-04-10T04:44:46.503Z,42.80
2023-04-10T04:47:13.064Z,44.30
2023-04-10T04:49:39.593Z,46.23
2023-04-10T04:52:06.212Z,41.23
2023-04-10T04:54:32.760Z,48.60
2023-04-10T04:56:59.312Z,43.33
2023-04-10T04:59:25.854Z,40.60
2023-04-10T05:01:52.731Z,38.70
2023-04-10T05:04:20.646Z,42.97
2023-04-10T05:06:47.286Z,43.50
2023-04-10T05:09:13.867Z,53.17
2023-04-10T05:11:40.947Z,41.87
2023-04-10T05:14:10.182Z,42.03
2023-04-10T05:16:36.751Z,47.47
2023-04-10T05:19:03.400Z,47.60
2023-04-10T05:21:31.146Z,44.30
2023-04-10T05:23:57.725Z,50.17
2023-04-10T05:26:24.274Z,50.43
2023-04-10T05:28:51.014Z,53.90
2023-04-10T05:31:17.606Z,47.17
2023-04-10T05:33:44.179Z,52.77
2023-04-10T05:36:11.137Z,52.83
2023-04-10T05:38:37.817Z,50.00
2023-04-10T05:41:04.435Z,45.20
2023-04-10T05:43:31.028Z,45.03
2023-04-10T05:45:57.664Z,44.97
2023-04-10T05:48:26.060Z,42.50
2023-04-10T05:50:52.840Z,46.10
2023-04-10T05:53:21.045Z,40.13
2023-04-10T05:55:54.474Z,50.23
2023-04-10T05:58:21.110Z,41.80
2023-04-10T06:00:47.771Z,40.90
2023-04-10T06:03:14.629Z,37.90
2023-04-10T06:05:41.662Z,39.70
2023-04-10T06:08:08.273Z,37.27
2023-04-10T06:10:34.845Z,35.00
2023-04-10T06:13:01.412Z,36.20
2023-04-10T06:15:28.512Z,36.50
2023-04-10T06:18:01.295Z,37.60
2023-04-10T06:20:28.025Z,36.97
2023-04-10T06:22:54.577Z,33.37
2023-04-10T06:25:21.151Z,35.00
2023-04-10T06:27:47.726Z,35.67
2023-04-10T06:30:14.306Z,33.67
2023-04-10T06:32:41.647Z,37.47
2023-04-10T06:35:08.706Z,32.60
2023-04-10T06:37:35.445Z,34.93
2023-04-10T06:40:12.941Z,35.43
2023-04-10T06:42:39.566Z,34.57
2023-04-10T06:45:06.705Z,33.43
2023-04-10T06:47:33.501Z,29.30
2023-04-10T06:50:00.213Z,31.97
2023-04-10T06:52:27.038Z,34.33
2023-04-10T06:54:53.674Z,24.40
2023-04-10T06:57:23.344Z,30.13
2023-04-10T06:59:49.945Z,33.17
2023-04-10T07:02:16.588Z,28.93
2023-04-10T07:04:43.188Z,25.60
2023-04-10T07:07:12.402Z,23.97
2023-04-10T07:09:39.570Z,19.83
2023-04-10T07:12:06.229Z,17.60
2023-04-10T07:14:34.884Z,17.17
2023-04-10T07:17:01.873Z,23.60
2023-04-10T07:19:28.807Z,18.13
2023-04-10T07:21:55.485Z,13.80
2023-04-10T07:24:22.189Z,15.63
2023-04-10T07:26:48.758Z,14.07
2023-04-10T07:29:15.819Z,12.97
2023-04-10T07:31:42.574Z,11.93
2023-04-10T07:34:11.490Z,12.80
2023-04-10T07:36:38.370Z,10.57
2023-04-10T07:39:04.975Z,11.13
2023-04-10T07:41:31.692Z,11.37
2023-04-10T07:43:58.236Z,7.30
2023-04-10T07:46:24.834Z,7.50
2023-04-10T07:48:52.135Z,9.87
2023-04-10T07:51:18.938Z,7.33
2023-04-10T07:53:45.513Z,7.33
2023-04-10T07:56:19.910Z,7.90
2023-04-10T07:58:47.101Z,7.60
2023-04-10T08:01:14.632Z,15.73
2023-04-10T08:03:43.174Z,6.47
2023-04-10T08:06:11.254Z,8.70
2023-04-10T08:08:39.812Z,8.63
2023-04-10T08:11:08.506Z,6.47
2023-04-10T08:13:35.135Z,7.63
2023-04-10T08:16:01.946Z,7.37
2023-04-10T08:18:28.477Z,7.67
2023-04-10T08:20:55.135Z,6.40
2023-04-10T08:23:21.710Z,6.63
2023-04-10T08:25:48.425Z,7.03
2023-04-10T08:28:15.344Z,6.40
2023-04-10T08:30:41.938Z,7.27
2023-04-10T08:33:08.517Z,6.87
2023-04-10T08:35:35.112Z,5.97
2023-04-10T08:38:12.620Z,7.80
2023-04-10T08:40:40.727Z,5.97
2023-04-10T08:43:07.291Z,6.50
2023-04-10T08:45:34.096Z,7.40
2023-04-10T08:48:05.291Z,6.33
2023-04-10T08:50:36.055Z,6.53
2023-04-10T08:53:08.990Z,5.90
2023-04-10T08:55:38.322Z,6.10
2023-04-10T08:58:05.260Z,6.73
2023-04-10T09:00:34.836Z,6.53
2023-04-10T09:03:04.838Z,5.40
2023-04-10T09:05:31.975Z,5.40
2023-04-10T09:07:58.617Z,6.70
2023-04-10T09:10:25.251Z,5.27
2023-04-10T09:12:52.362Z,5.83
2023-04-10T09:15:19.059Z,5.17
2023-04-10T09:18:00.812Z,5.60
2023-04-10T09:20:29.710Z,6.03
2023-04-10T09:22:56.727Z,5.97
2023-04-10T09:25:38.957Z,4.77
2023-04-10T09:28:07.380Z,2.40
2023-04-10T09:30:39.910Z,3.83
2023-04-10T09:33:23.416Z,3.93
2023-04-10T09:35:50.725Z,5.27
2023-04-10T09:38:19.093Z,3.57
2023-04-10T09:40:46.953Z,3.83
2023-04-10T09:43:40.083Z,4.37
2023-04-10T09:46:09.659Z,3.03
2023-04-10T09:48:36.216Z,6.30
2023-04-10T09:51:03.139Z,3.50
2023-04-10T09:53:29.827Z,3.00
2023-04-10T09:55:56.909Z,4.13
2023-04-10T09:58:26.345Z,3.40
2023-04-10T10:00:53.531Z,4.83
2023-04-10T10:03:24.052Z,2.70
2023-04-10T10:05:51.716Z,4.30
2023-04-10T10:08:18.791Z,3.60
2023-04-10T10:10:57.260Z,4.30
2023-04-10T10:13:48.405Z,4.20
2023-04-10T10:16:38.479Z,5.53
2023-04-10T10:19:27.114Z,3.37
2023-04-10T10:21:55.393Z,2.93
2023-04-10T10:24:23.704Z,3.20
2023-04-10T10:26:51.804Z,3.17
2023-04-10T10:29:19.579Z,3.93
2023-04-10T10:31:47.614Z,3.10
2023-04-10T10:34:16.431Z,3.30
2023-04-10T10:36:43.236Z,5.40
2023-04-10T10:39:25.675Z,3.57
2023-04-10T10:42:07.895Z,3.63
2023-04-10T10:44:42.847Z,3.73
2023-04-10T10:47:28.885Z,4.00
2023-04-10T10:49:58.215Z,3.23
2023-04-10T10:52:45.844Z,4.93
2023-04-10T10:55:31.244Z,3.10
2023-04-10T10:58:02.428Z,3.20
2023-04-10T11:00:51.172Z,4.97
2023-04-10T11:03:17.913Z,2.60
2023-04-10T11:06:21.275Z,3.03
2023-04-10T11:08:49.611Z,3.27
2023-04-10T11:11:24.421Z,3.77
2023-04-10T11:13:56.137Z,2.80
2023-04-10T11:16:41.729Z,2.90
2023-04-10T11:19:14.948Z,3.17
2023-04-10T11:22:07.305Z,3.17
2023-04-10T11:24:57.516Z,3.40
2023-04-10T11:27:54.396Z,2.60
2023-04-10T11:30:35.292Z,5.10
2023-04-10T11:33:03.804Z,2.80
2023-04-10T11:35:31.713Z,2.93
2023-04-10T11:38:14.439Z,4.07
2023-04-10T11:40:58.421Z,2.70
2023-04-10T11:43:25.335Z,3.37
2023-04-10T11:46:03.026Z,3.00
2023-04-10T11:48:30.225Z,2.90
2023-04-10T11:50:57.508Z,3.40
2023-04-10T11:53:24.467Z,3.97
2023-04-10T11:55:51.736Z,4.87
2023-04-10T11:58:22.997Z,3.10
2023-04-10T12:01:04.802Z,4.80
2023-04-10T12:03:39.752Z,2.90
2023-04-10T12:06:08.474Z,3.77
2023-04-10T12:08:40.572Z,8.23
2023-04-10T12:11:09.412Z,9.90
2023-04-10T12:13:36.981Z,3.03
2023-04-10T12:16:06.772Z,6.73
2023-04-10T12:18:33.918Z,3.23
2023-04-10T12:21:01.413Z,7.57
2023-04-10T12:23:29.674Z,10.03
2023-04-10T12:26:15.187Z,4.33
2023-04-10T12:28:50.336Z,2.93
2023-04-10T12:31:17.255Z,3.50
2023-04-10T12:33:47.058Z,5.60
2023-04-10T12:36:24.230Z,2.47
2023-04-10T12:38:51.055Z,2.53
2023-04-10T12:41:31.490Z,2.77
2023-04-10T12:44:12.347Z,3.00
2023-04-10T12:46:40.566Z,5.10
2023-04-10T12:49:13.189Z,6.20
2023-04-10T12:51:46.387Z,3.67
2023-04-10T12:54:27.038Z,6.90
2023-04-10T12:56:54.463Z,2.63
2023-04-10T12:59:22.488Z,2.30
2023-04-10T13:01:49.591Z,2.77
2023-04-10T13:04:16.698Z,2.43
2023-04-10T13:06:46.661Z,3.37
2023-04-10T13:09:14.144Z,3.43
2023-04-10T13:11:41.881Z,2.20
2023-04-10T13:14:09.484Z,2.93
2023-04-10T13:16:36.186Z,2.40
2023-04-10T13:19:02.897Z,2.43
2023-04-10T13:21:30.017Z,2.27
2023-04-10T13:23:56.682Z,5.40
2023-04-10T13:26:24.240Z,4.00
2023-04-10T13:28:50.870Z,3.73
2023-04-10T13:31:17.560Z,2.20
2023-04-10T13:33:47.738Z,5.10
2023-04-10T13:36:16.332Z,3.50
2023-04-10T13:38:43.029Z,2.53
2023-04-10T13:41:09.762Z,2.93
2023-04-10T13:43:37.402Z,4.43
2023-04-10T13:46:04.052Z,2.83
2023-04-10T13:48:40.037Z,3.27
2023-04-10T13:51:08.264Z,2.73
2023-04-10T13:53:35.065Z,2.30
2023-04-10T13:56:01.733Z,2.83
2023-04-10T13:58:31.684Z,3.57
2023-04-10T14:00:58.448Z,3.03
2023-04-10T14:03:25.396Z,3.37
2023-04-10T14:05:52.800Z,4.83
2023-04-10T14:08:19.766Z,5.07
2023-04-10T14:10:50.658Z,3.23
2023-04-10T14:13:17.906Z,2.83
2023-04-10T14:15:44.839Z,3.03
2023-04-10T14:18:11.585Z,3.87
2023-04-10T14:20:38.923Z,3.17
2023-04-10T14:23:05.756Z,3.10
2023-04-10T14:25:32.325Z,3.50
2023-04-10T14:27:59.703Z,3.50
2023-04-10T14:30:30.782Z,3.07
2023-04-10T14:32:57.600Z,3.33
2023-04-10T14:35:24.302Z,2.80
2023-04-10T14:37:50.938Z,5.17
2023-04-10T14:40:17.526Z,2.60
2023-04-10T14:42:44.181Z,2.23
2023-04-10T14:45:10.959Z,2.77
2023-04-10T14:47:37.635Z,2.50
2023-04-10T14:50:04.570Z,2.90
2023-04-10T14:52:31.136Z,6.57
2023-04-10T14:54:57.706Z,2.20
2023-04-10T14:57:24.329Z,5.83
2023-04-10T14:59:50.872Z,2.60
2023-04-10T15:02:17.561Z,7.73
2023-04-10T15:04:44.195Z,2.63
2023-04-10T15:07:10.802Z,3.70
2023-04-10T15:09:37.753Z,2.60
2023-04-10T15:12:04.494Z,5.73
2023-04-10T15:14:31.055Z,4.83
2023-04-10T15:16:57.708Z,8.03
2023-04-10T15:19:24.300Z,3.40
2023-04-10T15:21:50.865Z,2.70
2023-04-10T15:24:17.431Z,3.03
2023-04-10T15:26:45.704Z,3.60
2023-04-10T15:29:13.268Z,25.50
2023-04-10T15:31:40.196Z,6.60
2023-04-10T15:34:07.267Z,12.40
2023-04-10T15:36:33.860Z,4.40
2023-04-10T15:39:02.699Z,5.27
2023-04-10T15:41:31.637Z,5.97
2023-04-10T15:43:58.361Z,6.83
2023-04-10T15:46:25.656Z,6.20
2023-04-10T15:48:52.451Z,3.73
2023-04-10T15:51:19.076Z,5.10
2023-04-10T15:53:45.650Z,4.90
2023-04-10T15:56:12.301Z,4.63
2023-04-10T15:58:38.879Z,6.10
2023-04-10T16:01:06.192Z,5.20
2023-04-10T16:03:32.865Z,3.93
2023-04-10T16:05:59.630Z,5.90
2023-04-10T16:08:27.307Z,4.07
2023-04-10T16:10:54.290Z,5.10
2023-04-10T16:13:20.917Z,9.23
2023-04-10T16:15:47.566Z,4.70
2023-04-10T16:18:14.172Z,6.23
2023-04-10T16:20:41.883Z,4.70
2023-04-10T16:23:08.531Z,4.43
2023-04-10T16:25:35.267Z,4.50
2023-04-10T16:28:02.332Z,4.37
2023-04-10T16:30:28.899Z,2.23
2023-04-10T16:32:55.511Z,3.87
2023-04-10T16:35:22.665Z,2.50
2023-04-10T16:37:49.471Z,5.17
2023-04-10T16:40:16.057Z,4.27
2023-04-10T16:42:42.797Z,5.07
2023-04-10T16:45:10.547Z,4.03
2023-04-10T16:47:37.974Z,4.07
2023-04-10T16:50:05.162Z,2.93
2023-04-10T16:52:32.204Z,11.17
2023-04-10T16:54:58.838Z,8.57
2023-04-10T16:57:25.385Z,8.50
2023-04-10T16:59:59.120Z,4.00
2023-04-10T17:02:26.682Z,4.30
2023-04-10T17:05:00.407Z,8.33
2023-04-10T17:07:27.135Z,8.67
2023-04-10T17:09:53.766Z,2.93
2023-04-10T17:12:20.418Z,4.70
2023-04-10T17:14:47.103Z,3.60
2023-04-10T17:17:13.747Z,9.00
2023-04-10T17:19:40.488Z,16.47
2023-04-10T17:22:15.874Z,14.77
2023-04-10T17:24:44.174Z,13.80
2023-04-10T17:27:11.319Z,8.40
2023-04-10T17:29:41.164Z,9.00
2023-04-10T17:32:08.792Z,7.27
2023-04-10T17:34:35.795Z,13.07
2023-04-10T17:37:02.755Z,4.90
2023-04-10T17:39:29.504Z,8.27
2023-04-10T17:41:56.773Z,7.30
2023-04-10T17:44:23.507Z,6.83
2023-04-10T17:46:50.296Z,9.10
2023-04-10T17:49:17.065Z,6.47
2023-04-10T17:51:43.717Z,6.93
2023-04-10T17:54:10.458Z,6.00
2023-04-10T17:56:37.073Z,4.40
2023-04-10T17:59:04.074Z,10.23
2023-04-10T18:01:31.028Z,3.20
2023-04-10T18:03:59.064Z,4.43
2023-04-10T18:06:26.381Z,5.00
2023-04-10T18:08:53.260Z,4.23
2023-04-10T18:11:20.146Z,5.27
2023-04-10T18:13:47.115Z,3.67
2023-04-10T18:16:13.883Z,4.40
2023-04-10T18:18:42.106Z,5.20
2023-04-10T18:21:13.175Z,5.33
2023-04-10T18:23:40.220Z,4.97
2023-04-10T18:26:07.210Z,4.83
2023-04-10T18:28:34.107Z,5.70
2023-04-10T18:31:01.098Z,5.83
2023-04-10T18:33:27.811Z,4.37
2023-04-10T18:35:59.316Z,6.20
2023-04-10T18:38:26.532Z,3.80
2023-04-10T18:40:59.418Z,4.50
2023-04-10T18:43:29.455Z,9.73
2023-04-10T18:45:56.849Z,4.33
2023-04-10T18:48:23.597Z,4.83
2023-04-10T18:50:53.673Z,6.77
2023-04-10T18:53:21.177Z,4.20
2023-04-10T18:55:54.409Z,5.97
2023-04-10T18:58:25.374Z,5.60
2023-04-10T19:00:53.465Z,7.20
2023-04-10T19:03:20.192Z,6.50
2023-04-10T19:05:47.716Z,5.00
2023-04-10T19:08:15.831Z,5.47
2023-04-10T19:10:43.036Z,5.77
2023-04-10T19:13:11.818Z,5.37
2023-04-10T19:15:43.836Z,5.73
2023-04-10T19:18:12.398Z,5.73
2023-04-10T19:20:50.485Z,8.40
2023-04-10T19:23:19.670Z,5.20
2023-04-10T19:25:46.586Z,6.80
2023-04-10T19:28:13.472Z,6.77
2023-04-10T19:30:40.319Z,11.23
2023-04-10T19:33:06.912Z,9.10
2023-04-10T19:35:33.580Z,7.20
2023-04-10T19:38:00.273Z,8.90
2023-04-10T19:40:26.933Z,7.20
2023-04-10T19:42:53.701Z,6.20
2023-04-10T19:45:22.096Z,9.70
2023-04-10T19:47:50.846Z,7.03
2023-04-10T19:50:17.479Z,5.80
2023-04-10T19:52:44.096Z,5.00
2023-04-10T19:55:11.004Z,4.70
2023-04-10T19:57:37.673Z,3.57
2023-04-10T20:00:04.699Z,3.27
2023-04-10T20:02:31.437Z,3.53
2023-04-10T20:04:58.250Z,2.60
2023-04-10T20:07:24.962Z,2.67
2023-04-10T20:09:51.554Z,4.13
2023-04-10T20:12:18.245Z,1.80
2023-04-10T20:14:44.965Z,2.57
2023-04-10T20:17:12.216Z,3.30
2023-04-10T20:19:38.799Z,4.37
2023-04-10T20:22:06.900Z,5.67
2023-04-10T20:24:33.465Z,5.00
2023-04-10T20:27:00.129Z,4.50
2023-04-10T20:29:26.665Z,4.90
2023-04-10T20:31:53.291Z,5.30
2023-04-10T20:34:19.904Z,3.40
2023-04-10T20:36:46.486Z,6.07
2023-04-10T20:39:13.048Z,2.70
2023-04-10T20:41:39.632Z,4.10
2023-04-10T20:44:07.026Z,3.30
2023-04-10T20:46:34.015Z,2.23
2023-04-10T20:49:00.758Z,8.67
2023-04-10T20:51:28.755Z,3.27
2023-04-10T20:53:55.653Z,2.93
2023-04-10T20:56:27.280Z,2.90
2023-04-10T20:59:03.223Z,2.33
2023-04-10T21:01:29.865Z,4.30
2023-04-10T21:03:58.677Z,2.47
2023-04-10T21:06:26.367Z,3.40
2023-04-10T21:08:53.139Z,5.57
2023-04-10T21:11:21.911Z,3.10
2023-04-10T21:13:49.110Z,2.63
2023-04-10T21:16:15.834Z,4.60
2023-04-10T21:18:42.518Z,2.53
2023-04-10T21:21:09.490Z,2.60
2023-04-10T21:23:36.277Z,4.13
2023-04-10T21:26:03.445Z,2.73
2023-04-10T21:28:30.074Z,2.73
2023-04-10T21:30:56.687Z,2.20
2023-04-10T21:33:23.250Z,2.43
2023-04-10T21:35:49.890Z,4.70
2023-04-10T21:38:16.485Z,3.90
2023-04-10T21:40:50.457Z,2.37
2023-04-10T21:43:17.077Z,4.50
2023-04-10T21:45:43.646Z,2.90
2023-04-10T21:48:10.369Z,2.70
2023-04-10T21:50:36.987Z,3.90
2023-04-10T21:53:03.600Z,2.27
2023-04-10T21:55:30.183Z,2.33
2023-04-10T21:57:57.244Z,3.00
2023-04-10T22:00:23.999Z,2.53
2023-04-10T22:02:52.426Z,1.63
2023-04-10T22:05:19.319Z,2.00
2023-04-10T22:07:45.900Z,5.80
2023-04-10T22:10:12.533Z,3.03
2023-04-10T22:12:39.199Z,2.23
2023-04-10T22:15:07.746Z,2.00
2023-04-10T22:17:34.531Z,3.70
2023-04-10T22:20:01.430Z,2.30
2023-04-10T22:22:28.023Z,2.07
2023-04-10T22:24:54.638Z,3.57
2023-04-10T22:27:21.303Z,5.07
2023-04-10T22:29:59.960Z,2.73
2023-04-10T22:32:29.262Z,2.70
2023-04-10T22:34:56.011Z,3.50
2023-04-10T22:37:22.574Z,1.67
2023-04-10T22:39:49.174Z,3.10
2023-04-10T22:42:15.849Z,3.37
2023-04-10T22:44:43.927Z,1.73
2023-04-10T22:47:10.580Z,1.67
2023-04-10T22:49:37.152Z,1.50
2023-04-10T22:52:03.794Z,1.60
2023-04-10T22:54:30.469Z,2.40
2023-04-10T22:56:57.735Z,2.30
2023-04-10T22:59:24.368Z,1.67
2023-04-10T23:01:51.594Z,1.83
2023-04-10T23:04:18.430Z,3.60
2023-04-10T23:06:45.109Z,1.93
2023-04-10T23:09:11.664Z,2.00
2023-04-10T23:11:38.744Z,2.50
2023-04-10T23:14:05.482Z,2.37
2023-04-10T23:16:32.138Z,2.13
2023-04-10T23:18:58.908Z,2.10
2023-04-10T23:21:25.517Z,7.10
2023-04-10T23:23:52.066Z,1.77
2023-04-10T23:26:18.745Z,2.00
2023-04-10T23:28:45.502Z,2.20
2023-04-10T23:31:12.166Z,3.10
2023-04-10T23:33:38.756Z,2.90
2023-04-10T23:36:05.828Z,4.03
2023-04-10T23:38:32.428Z,2.33
2023-04-10T23:40:59.030Z,1.53
2023-04-10T23:43:25.687Z,1.17
2023-04-10T23:45:52.228Z,2.07
2023-04-10T23:48:18.791Z,4.47
2023-04-10T23:50:45.459Z,4.20
2023-04-10T23:53:13.434Z,6.63
2023-04-10T23:55:41.421Z,4.33
2023-04-10T23:58:08.099Z,2.73
